Time,TemperatureF,DewpointF,PressureIn,WindDirection,WindDirectionDegrees,WindSpeedMPH,WindSpeedGustMPH,Humidity,HourlyPrecipIn,Conditions,Clouds,dailyrainin,SoftwareType,DateUTC
2013-01-06 15:12:00,50.0,-99.9,30.19,North,7,9.0,11.0,-999,-99.99,,,-99.99,,2013-01-06 21:12:00,
2013-01-06 15:22:00,50.0,-99.9,30.19,North,11,10.0,12.0,-999,-99.99,,,-99.99,,2013-01-06 21:22:00,
2013-01-06 15:33:00,51.0,-99.9,30.19,NNE,20,8.0,12.0,-999,-99.99,,,-99.99,,2013-01-06 21:33:00,
2013-01-06 15:43:00,50.0,-99.9,30.19,North,3,8.0,10.0,-999,-99.99,,,-99.99,,2013-01-06 21:43:00,
2013-01-06 15:53:00,50.0,-99.9,30.19,North,3,9.0,11.0,-999,-99.99,,,-99.99,,2013-01-06 21:53:00,
2013-01-06 16:02:00,50.0,-99.9,30.20,North,356,10.0,13.0,-999,-99.99,,,-99.99,,2013-01-06 22:02:00,
2013-01-06 16:12:00,50.0,-99.9,30.19,North,360,8.0,10.0,-999,-99.99,,,-99.99,,2013-01-06 22:12:00,
2013-01-06 16:23:00,50.0,-99.9,30.19,North,360,9.0,11.0,-999,-99.99,,,-99.99,,2013-01-06 22:23:00,
2013-01-06 16:33:00,50.0,-99.9,30.19,North,3,11.0,13.0,-999,-99.99,,,-99.99,,2013-01-06 22:33:00,
2013-01-06 16:43:00,50.0,-99.9,30.19,North,-999,8.0,10.0,-999,-99.99,,,-99.99,,2013-01-06 22:43:00,
2013-01-06 16:53:00,50.0,-99.9,30.19,North,11,9.0,13.0,-999,-99.99,,,-99.99,,2013-01-06 22:53:00,
2013-01-06 17:02:00,50.0,-99.9,30.19,North,10,7.0,8.0,-999,-99.99,,,-99.99,,2013-01-06 23:02:00,
2013-01-06 17:13:00,50.0,-99.9,30.20,NNE,14,8.0,10.0,-999,-99.99,,,-99.99,,2013-01-06 23:13:00,
2013-01-06 17:22:00,51.0,-99.9,30.21,North,1,6.0,7.0,-999,-99.99,,,-99.99,,2013-01-06 23:22:00,
2013-01-06 17:33:00,51.0,-99.9,30.21,North,7,4.0,5.0,-999,-99.99,,,-99.99,,2013-01-06 23:33:00,
2013-01-06 17:43:00,51.0,-99.9,30.21,NNE,18,3.0,4.0,-999,-99.99,,,-99.99,,2013-01-06 23:43:00,
2013-01-06 17:53:00,51.0,-99.9,30.21,NNE,14,4.0,6.0,-999,-99.99,,,-99.99,,2013-01-06 23:53:00,
2013-01-06 18:03:00,51.0,-99.9,30.21,North,4,4.0,5.0,-999,-99.99,,,-99.99,,2013-01-07 00:03:00,
2013-01-06 18:12:00,51.0,-99.9,30.22,North,2,6.0,8.0,-999,-99.99,,,-99.99,,2013-01-07 00:12:00,
2013-01-06 18:23:00,51.0,-99.9,30.22,North,1,6.0,7.0,-999,-99.99,,,-99.99,,2013-01-07 00:23:00,
2013-01-06 18:33:00,51.0,-99.9,30.23,North,353,6.0,8.0,-999,-99.99,,,-99.99,,2013-01-07 00:33:00,
2013-01-06 18:43:00,51.0,-99.9,30.23,North,359,7.0,10.0,-999,-99.99,,,-99.99,,2013-01-07 00:43:00,
2013-01-06 18:53:00,51.0,-99.9,30.23,North,1,8.0,10.0,-999,-99.99,,,-99.99,,2013-01-07 00:53:00,
2013-01-06 19:03:00,50.0,-99.9,30.24,North,359,7.0,8.0,-999,-99.99,,,-99.99,,2013-01-07 01:03:00,
2013-01-06 19:12:00,50.0,-99.9,30.24,North,351,7.0,9.0,-999,-99.99,,,-99.99,,2013-01-07 01:12:00,
2013-01-06 19:23:00,49.0,-99.9,30.24,North,353,9.0,11.0,-999,-99.99,,,-99.99,,2013-01-07 01:23:00,
2013-01-06 19:32:00,49.0,-99.9,30.24,North,353,9.0,11.0,-999,-99.99,,,-99.99,,2013-01-07 01:32:00,
2013-01-06 19:43:00,49.0,-99.9,30.25,North,354,8.0,9.0,-999,-99.99,,,-99.99,,2013-01-07 01:43:00,
2013-01-06 19:53:00,49.0,-99.9,30.25,North,360,8.0,11.0,-999,-99.99,,,-99.99,,2013-01-07 01:53:00,
2013-01-06 20:02:00,49.0,-99.9,30.25,North,359,10.0,13.0,-999,-99.99,,,-99.99,,2013-01-07 02:02:00,
2013-01-06 20:12:00,49.0,-99.9,30.25,North,359,11.0,14.0,-999,-99.99,,,-99.99,,2013-01-07 02:12:00,
2013-01-06 20:23:00,49.0,-99.9,30.26,North,360,11.0,13.0,-999,-99.99,,,-99.99,,2013-01-07 02:23:00,
2013-01-06 20:33:00,49.0,-99.9,30.25,North,6,10.0,12.0,-999,-99.99,,,-99.99,,2013-01-07 02:33:00,
2013-01-06 20:43:00,49.0,-99.9,30.26,North,356,10.0,11.0,-999,-99.99,,,-99.99,,2013-01-07 02:43:00,
2013-01-06 20:53:00,49.0,-99.9,30.26,North,5,10.0,13.0,-999,-99.99,,,-99.99,,2013-01-07 02:53:00,
2013-01-06 21:03:00,49.0,-99.9,30.25,North,8,11.0,15.0,-999,-99.99,,,-99.99,,2013-01-07 03:03:00,
2013-01-06 21:12:00,48.0,-99.9,30.24,North,11,12.0,16.0,-999,-99.99,,,-99.99,,2013-01-07 03:12:00,
2013-01-06 21:23:00,48.0,-99.9,30.24,North,8,12.0,15.0,-999,-99.99,,,-99.99,,2013-01-07 03:23:00,
2013-01-06 21:33:00,48.0,-99.9,30.25,North,4,10.0,14.0,-999,-99.99,,,-99.99,,2013-01-07 03:33:00,
2013-01-06 21:43:00,48.0,-99.9,30.27,North,2,9.0,11.0,-999,-99.99,,,-99.99,,2013-01-07 03:43:00,
2013-01-06 21:53:00,48.0,-99.9,30.27,North,4,9.0,11.0,-999,-99.99,,,-99.99,,2013-01-07 03:53:00,
2013-01-06 22:02:00,48.0,-99.9,30.27,North,2,10.0,13.0,-999,-99.99,,,-99.99,,2013-01-07 04:02:00,
2013-01-06 22:13:00,47.0,-99.9,30.27,North,6,9.0,13.0,-999,-99.99,,,-99.99,,2013-01-07 04:13:00,
2013-01-06 22:22:00,47.0,-99.9,30.27,North,6,8.0,11.0,-999,-99.99,,,-99.99,,2013-01-07 04:22:00,
2013-01-06 22:33:00,47.0,-99.9,30.27,North,8,8.0,10.0,-999,-99.99,,,-99.99,,2013-01-07 04:33:00,
2013-01-06 22:42:00,47.0,-99.9,30.27,NNE,12,9.0,13.0,-999,-99.99,,,-99.99,,2013-01-07 04:42:00,
2013-01-06 22:53:00,47.0,-99.9,30.27,NNE,14,8.0,11.0,-999,-99.99,,,-99.99,,2013-01-07 04:53:00,
2013-01-06 23:03:00,47.0,-99.9,30.27,NNE,14,10.0,13.0,-999,-99.99,,,-99.99,,2013-01-07 05:03:00,
2013-01-06 23:12:00,47.0,-99.9,30.27,North,9,9.0,11.0,-999,-99.99,,,-99.99,,2013-01-07 05:12:00,
2013-01-06 23:22:00,46.0,-99.9,30.27,North,11,8.0,10.0,-999,-99.99,,,-99.99,,2013-01-07 05:22:00,
2013-01-06 23:33:00,46.0,-99.9,30.27,North,6,7.0,9.0,-999,-99.99,,,-99.99,,2013-01-07 05:33:00,
2013-01-06 23:43:00,46.0,-99.9,30.28,North,10,8.0,11.0,-999,-99.99,,,-99.99,,2013-01-07 05:43:00,
2013-01-06 23:53:00,46.0,-99.9,30.27,North,9,8.0,11.0,-999,-99.99,,,-99.99,,2013-01-07 05:53:00,